createdAt,value
2023-05-07T00:00:54.932Z,23.30
2023-05-07T00:03:37.124Z,23.50
2023-05-07T00:06:15.187Z,23.80
2023-05-07T00:08:54.956Z,24.00
2023-05-07T00:11:32.917Z,24.40
2023-05-07T00:14:07.482Z,24.50
2023-05-07T00:16:46.639Z,25.00
2023-05-07T00:19:22.314Z,25.30
2023-05-07T00:21:58.392Z,25.80
2023-05-07T00:24:37.674Z,26.20
2023-05-07T00:27:16.733Z,26.20
2023-05-07T00:29:51.518Z,26.20
2023-05-07T00:32:27.940Z,26.30
2023-05-07T00:35:10.495Z,26.60
2023-05-07T00:37:49.645Z,27.10
2023-05-07T00:40:33.966Z,27.60
2023-05-07T00:43:12.037Z,27.20
2023-05-07T00:45:46.546Z,27.40
2023-05-07T00:48:22.327Z,27.50
2023-05-07T00:51:08.340Z,28.10
2023-05-07T00:53:43.644Z,28.60
2023-05-07T00:56:24.891Z,28.40
2023-05-07T00:59:02.351Z,28.40
2023-05-07T01:01:39.081Z,29.00
2023-05-07T01:04:18.900Z,30.60
2023-05-07T01:06:55.846Z,31.60
2023-05-07T01:09:32.524Z,32.40
2023-05-07T01:12:11.146Z,31.30
2023-05-07T01:14:45.601Z,30.50
2023-05-07T01:17:20.032Z,30.10
2023-05-07T01:19:56.299Z,30.20
2023-05-07T01:22:39.443Z,30.20
2023-05-07T01:25:17.145Z,30.70
2023-05-07T01:28:00.133Z,30.00
2023-05-07T01:30:38.824Z,30.80
2023-05-07T01:33:19.692Z,30.40
2023-05-07T01:36:00.955Z,30.50
2023-05-07T01:38:43.611Z,31.10
2023-05-07T01:41:21.046Z,32.60
2023-05-07T01:43:55.523Z,32.90
2023-05-07T01:46:33.061Z,32.30
2023-05-07T01:49:10.000Z,32.50
2023-05-07T01:51:46.691Z,32.00
2023-05-07T01:54:24.714Z,31.50
2023-05-07T01:57:01.282Z,31.20
2023-05-07T01:59:46.575Z,30.10
2023-05-07T02:02:24.566Z,31.50
2023-05-07T02:05:03.099Z,31.90
2023-05-07T02:07:39.727Z,32.40
2023-05-07T02:10:22.102Z,32.20
2023-05-07T02:13:11.201Z,32.00
2023-05-07T02:18:47.375Z,31.60
2023-05-07T02:21:21.821Z,31.20
2023-05-07T02:23:57.648Z,30.90
2023-05-07T02:26:51.080Z,30.60
2023-05-07T02:29:32.296Z,29.10
2023-05-07T02:32:07.591Z,28.70
2023-05-07T02:34:42.522Z,27.80
2023-05-07T02:37:19.958Z,28.10
2023-05-07T02:39:54.654Z,28.30
2023-05-07T02:42:31.335Z,27.60
2023-05-07T02:45:12.549Z,27.10
2023-05-07T02:47:48.636Z,26.80
2023-05-07T02:50:26.009Z,26.80
2023-05-07T02:53:04.962Z,26.00
2023-05-07T02:55:43.397Z,25.90
2023-05-07T02:58:33.580Z,25.20
2023-05-07T03:01:10.430Z,25.20
2023-05-07T03:04:07.549Z,25.50
2023-05-07T03:06:45.097Z,24.80
2023-05-07T03:09:22.293Z,24.80
2023-05-07T03:12:10.817Z,24.70
2023-05-07T03:14:52.110Z,24.20
2023-05-07T03:17:26.683Z,24.20
2023-05-07T03:20:01.190Z,24.60
2023-05-07T03:22:37.466Z,24.40
2023-05-07T03:25:21.528Z,24.80
2023-05-07T03:27:59.836Z,25.30
2023-05-07T03:30:49.507Z,24.70
2023-05-07T03:33:30.676Z,24.80
2023-05-07T03:36:05.904Z,24.40
2023-05-07T03:38:39.773Z,24.40
2023-05-07T03:41:22.679Z,24.30
2023-05-07T03:44:01.525Z,24.20
2023-05-07T03:47:06.815Z,24.00
2023-05-07T03:49:42.159Z,24.00
2023-05-07T03:52:16.568Z,24.50
2023-05-07T03:54:53.608Z,24.30
2023-05-07T03:57:28.269Z,24.50
2023-05-07T04:00:09.952Z,24.60
2023-05-07T04:02:57.828Z,24.60
2023-05-07T04:05:34.150Z,24.50
2023-05-07T04:08:16.392Z,24.90
2023-05-07T04:11:01.426Z,24.70
2023-05-07T04:13:39.050Z,24.60
2023-05-07T04:16:19.625Z,24.80
2023-05-07T04:18:55.822Z,25.10
2023-05-07T04:21:32.329Z,25.30
2023-05-07T04:24:09.800Z,25.30
2023-05-07T04:26:45.533Z,25.20
2023-05-07T04:29:22.062Z,25.20
2023-05-07T04:31:58.013Z,25.30
2023-05-07T04:34:35.911Z,25.40
2023-05-07T04:37:18.235Z,25.50
2023-05-07T04:39:53.062Z,25.40
2023-05-07T04:42:31.152Z,25.10
2023-05-07T04:45:14.308Z,25.10
2023-05-07T04:47:56.230Z,25.00
2023-05-07T04:50:33.066Z,24.80
2023-05-07T04:53:15.187Z,25.00
2023-05-07T04:55:50.862Z,24.90
2023-05-07T04:58:27.993Z,24.60
2023-05-07T05:01:02.140Z,25.00
2023-05-07T05:03:38.989Z,25.10
2023-05-07T05:06:18.908Z,25.20
2023-05-07T05:08:54.183Z,25.00
2023-05-07T05:11:33.447Z,25.20
2023-05-07T05:14:14.900Z,25.50
2023-05-07T05:16:51.162Z,25.50
2023-05-07T05:19:27.121Z,25.20
2023-05-07T05:22:08.692Z,25.70
2023-05-07T05:24:43.431Z,25.90
2023-05-07T05:27:18.611Z,25.90
2023-05-07T05:29:52.576Z,26.20
2023-05-07T05:32:28.830Z,26.50
2023-05-07T05:35:04.478Z,26.40
2023-05-07T05:37:43.368Z,26.40
2023-05-07T05:40:18.772Z,26.30
2023-05-07T05:42:53.614Z,26.30
2023-05-07T05:45:29.418Z,26.60
2023-05-07T05:48:06.953Z,26.80
2023-05-07T05:50:48.765Z,26.80
2023-05-07T05:53:32.010Z,26.70
2023-05-07T05:56:07.792Z,26.80
2023-05-07T05:58:42.548Z,26.90
2023-05-07T06:01:21.976Z,26.90
2023-05-07T06:03:59.583Z,26.60
2023-05-07T06:06:44.321Z,26.70
2023-05-07T06:09:22.895Z,27.00
2023-05-07T06:12:04.124Z,27.20
2023-05-07T06:14:41.110Z,26.80
2023-05-07T06:17:21.783Z,26.80
2023-05-07T06:20:01.432Z,27.10
2023-05-07T06:22:38.289Z,27.40
2023-05-07T06:25:16.754Z,27.70
2023-05-07T06:27:55.634Z,27.20
2023-05-07T06:30:39.329Z,27.30
2023-05-07T06:33:17.619Z,27.20
2023-05-07T06:35:55.775Z,26.90
2023-05-07T06:38:36.976Z,27.10
2023-05-07T06:41:17.376Z,27.00
2023-05-07T06:43:54.090Z,27.00
2023-05-07T06:46:39.687Z,27.40
2023-05-07T06:49:17.258Z,27.50
2023-05-07T06:51:57.294Z,27.50
2023-05-07T06:54:31.561Z,27.10
2023-05-07T06:57:08.073Z,26.70
2023-05-07T06:59:45.143Z,26.80
2023-05-07T07:02:18.849Z,26.60
2023-05-07T07:05:05.931Z,26.60
2023-05-07T07:07:43.422Z,26.60
2023-05-07T07:10:18.896Z,26.80
2023-05-07T07:12:56.811Z,26.80
2023-05-07T07:15:32.126Z,26.80
2023-05-07T07:18:06.680Z,26.80
2023-05-07T07:20:45.537Z,27.00
2023-05-07T07:23:22.621Z,26.70
2023-05-07T07:25:58.724Z,26.70
2023-05-07T07:28:45.165Z,26.30
2023-05-07T07:31:25.432Z,26.60
2023-05-07T07:36:52.377Z,27.30
2023-05-07T07:39:30.906Z,27.30
2023-05-07T07:42:07.805Z,26.80
2023-05-07T07:44:45.806Z,26.80
2023-05-07T07:47:27.486Z,26.80
2023-05-07T07:50:02.089Z,26.60
2023-05-07T07:52:40.014Z,26.40
2023-05-07T07:55:20.155Z,26.30
2023-05-07T07:57:54.055Z,26.00
2023-05-07T08:00:32.580Z,26.00
2023-05-07T08:03:12.256Z,26.10
2023-05-07T08:05:55.057Z,26.00
2023-05-07T08:08:30.046Z,25.80
2023-05-07T08:11:05.987Z,25.90
2023-05-07T08:13:48.511Z,25.50
2023-05-07T08:16:31.142Z,25.50
2023-05-07T08:19:06.665Z,25.70
2023-05-07T08:21:45.313Z,25.70
2023-05-07T08:24:21.879Z,25.50
2023-05-07T08:26:57.451Z,25.10
2023-05-07T08:29:31.946Z,25.10
2023-05-07T08:32:49.462Z,25.20
2023-05-07T08:35:24.143Z,24.80
2023-05-07T08:38:00.595Z,24.50
2023-05-07T08:43:37.397Z,25.00
2023-05-07T08:46:17.838Z,25.10
2023-05-07T08:49:01.055Z,25.00
2023-05-07T08:51:37.366Z,25.00
2023-05-07T08:54:13.581Z,25.10
2023-05-07T08:56:48.711Z,25.00
2023-05-07T08:59:26.659Z,25.20
2023-05-07T09:02:04.596Z,25.30
2023-05-07T09:04:41.718Z,25.20
2023-05-07T09:07:19.869Z,25.10
2023-05-07T09:09:55.149Z,25.10
2023-05-07T09:12:29.227Z,25.10
2023-05-07T09:15:05.476Z,25.10
2023-05-07T09:17:40.444Z,25.20
2023-05-07T09:20:30.701Z,25.10
2023-05-07T09:23:05.783Z,25.00
2023-05-07T09:25:43.166Z,25.10
2023-05-07T09:28:25.228Z,25.20
2023-05-07T09:31:02.613Z,25.20
2023-05-07T09:33:37.421Z,25.30
2023-05-07T09:36:16.645Z,25.20
2023-05-07T09:38:55.854Z,25.20
2023-05-07T09:41:36.063Z,25.10
2023-05-07T09:44:28.410Z,25.20
2023-05-07T09:47:04.314Z,25.30
2023-05-07T09:49:46.950Z,25.30
2023-05-07T09:52:29.290Z,25.20
2023-05-07T09:55:05.404Z,25.20
2023-05-07T09:57:44.229Z,25.00
2023-05-07T10:00:19.169Z,25.00
2023-05-07T10:02:58.224Z,24.90
2023-05-07T10:05:41.030Z,24.60
2023-05-07T10:08:20.263Z,24.40
2023-05-07T10:10:55.846Z,24.40
2023-05-07T10:13:32.484Z,24.40
2023-05-07T10:16:08.220Z,24.10
2023-05-07T10:18:51.007Z,24.10
2023-05-07T10:21:38.180Z,24.00
2023-05-07T10:24:20.011Z,23.90
2023-05-07T10:27:14.638Z,23.90
2023-05-07T10:30:06.107Z,23.90
2023-05-07T10:32:49.299Z,24.00
2023-05-07T10:35:39.335Z,23.90
2023-05-07T10:38:15.912Z,24.00
2023-05-07T10:40:54.192Z,23.90
2023-05-07T10:43:42.635Z,23.70
2023-05-07T10:49:24.741Z,23.50
2023-05-07T11:04:38.396Z,23.90
2023-05-07T11:07:51.178Z,24.00
2023-05-07T11:10:25.394Z,24.10
2023-05-07T11:13:08.720Z,23.60
2023-05-07T11:16:03.466Z,23.50
2023-05-07T11:18:56.004Z,23.30
2023-05-07T11:21:42.955Z,23.10
2023-05-07T11:24:43.270Z,22.80
2023-05-07T11:27:31.255Z,22.80
2023-05-07T11:30:07.097Z,22.70
2023-05-07T11:32:43.004Z,22.50
2023-05-07T11:35:35.673Z,22.20
2023-05-07T11:38:17.568Z,21.80
2023-05-07T11:41:17.425Z,21.40
2023-05-07T11:47:10.369Z,21.20
2023-05-07T11:49:44.887Z,21.10
2023-05-07T11:52:22.304Z,20.40
2023-05-07T11:55:02.723Z,20.20
2023-05-07T11:57:42.670Z,20.10
2023-05-07T12:00:25.241Z,20.30
2023-05-07T12:03:05.850Z,20.30
2023-05-07T12:05:44.034Z,20.20
2023-05-07T12:08:35.606Z,20.20
2023-05-07T12:11:23.713Z,20.40
2023-05-07T12:14:10.834Z,20.10
2023-05-07T12:16:49.371Z,20.10
2023-05-07T12:19:23.392Z,20.10
2023-05-07T12:22:00.697Z,20.00
2023-05-07T12:24:53.157Z,20.00
2023-05-07T12:27:35.189Z,19.90
2023-05-07T12:30:25.133Z,20.00
2023-05-07T12:33:02.872Z,20.00
2023-05-07T12:35:43.737Z,20.10
2023-05-07T12:38:24.316Z,20.20
2023-05-07T12:41:04.359Z,20.00
2023-05-07T12:43:46.238Z,20.10
2023-05-07T12:46:26.626Z,20.00
2023-05-07T12:49:00.879Z,20.10
2023-05-07T12:51:42.440Z,20.20
2023-05-07T12:54:16.920Z,19.80
2023-05-07T12:56:55.023Z,19.80
2023-05-07T12:59:42.717Z,19.70
2023-05-07T13:02:17.433Z,19.80
2023-05-07T13:04:56.467Z,19.80
2023-05-07T13:07:38.520Z,20.00
2023-05-07T13:10:19.650Z,20.00
2023-05-07T13:13:02.901Z,19.90
2023-05-07T13:15:46.809Z,19.60
2023-05-07T13:18:25.331Z,19.60
2023-05-07T13:21:07.124Z,19.70
2023-05-07T13:23:42.243Z,19.70
2023-05-07T13:26:26.605Z,19.70
2023-05-07T13:29:04.434Z,19.60
2023-05-07T13:34:54.904Z,19.70
2023-05-07T13:37:32.922Z,19.80
2023-05-07T13:40:19.038Z,19.40
2023-05-07T13:42:58.437Z,19.50
2023-05-07T13:45:37.959Z,19.50
2023-05-07T13:48:27.833Z,19.50
2023-05-07T13:51:04.457Z,19.40
2023-05-07T13:53:43.226Z,19.40
2023-05-07T13:56:24.069Z,19.40
2023-05-07T13:59:01.758Z,19.30
2023-05-07T14:01:39.732Z,19.30
2023-05-07T14:04:17.159Z,19.50
2023-05-07T14:06:53.129Z,19.40
2023-05-07T14:09:38.448Z,19.50
2023-05-07T14:12:12.807Z,19.40
2023-05-07T14:14:57.494Z,19.40
2023-05-07T14:17:39.250Z,19.50
2023-05-07T14:20:22.257Z,19.30
2023-05-07T14:23:03.640Z,19.50
2023-05-07T14:25:41.378Z,19.70
2023-05-07T14:28:20.987Z,19.60
2023-05-07T14:31:01.275Z,19.80
2023-05-07T14:33:35.164Z,19.80
2023-05-07T14:36:18.082Z,19.80
2023-05-07T14:38:55.400Z,19.90
2023-05-07T14:41:33.193Z,20.10
2023-05-07T14:44:11.123Z,19.80
2023-05-07T14:46:54.921Z,19.80
2023-05-07T14:49:36.621Z,20.00
2023-05-07T14:52:17.407Z,19.70
2023-05-07T14:54:54.390Z,20.00
2023-05-07T14:57:32.898Z,19.90
2023-05-07T15:00:15.213Z,19.80
2023-05-07T15:05:47.555Z,19.60
2023-05-07T15:08:23.254Z,19.40
2023-05-07T15:11:02.448Z,19.30
2023-05-07T15:13:42.132Z,19.20
2023-05-07T15:16:22.028Z,19.20
2023-05-07T15:18:59.279Z,19.10
2023-05-07T15:21:36.972Z,18.80
2023-05-07T15:24:16.187Z,19.00
2023-05-07T15:26:51.758Z,19.10
2023-05-07T15:29:27.289Z,19.40
2023-05-07T15:32:08.950Z,19.50
2023-05-07T15:34:55.618Z,19.30
2023-05-07T15:37:49.444Z,19.60
2023-05-07T15:40:24.958Z,19.60
2023-05-07T15:43:02.558Z,19.60
2023-05-07T15:45:42.573Z,19.50
2023-05-07T15:48:20.668Z,19.60
2023-05-07T15:50:56.009Z,19.60
2023-05-07T15:53:32.494Z,19.50
2023-05-07T15:56:13.940Z,19.50
2023-05-07T15:58:49.819Z,19.70
2023-05-07T16:01:26.170Z,19.80
2023-05-07T16:04:03.263Z,19.70
2023-05-07T16:06:37.750Z,19.70
2023-05-07T16:09:13.875Z,19.60
2023-05-07T16:11:55.387Z,19.50
2023-05-07T16:14:30.840Z,19.50
2023-05-07T16:17:07.389Z,19.60
2023-05-07T16:19:40.471Z,19.80
2023-05-07T16:22:17.455Z,20.00
2023-05-07T16:24:59.759Z,19.80
2023-05-07T16:27:40.494Z,19.70
2023-05-07T16:30:32.858Z,19.70
2023-05-07T16:33:10.566Z,19.70
2023-05-07T16:35:49.679Z,19.50
2023-05-07T16:38:28.726Z,19.40
2023-05-07T16:41:05.754Z,19.50
2023-05-07T16:43:44.252Z,19.80
2023-05-07T16:46:20.530Z,19.70
2023-05-07T16:48:57.781Z,20.00
2023-05-07T16:51:31.800Z,19.90
2023-05-07T16:54:06.557Z,19.60
2023-05-07T16:56:44.026Z,19.40
2023-05-07T16:59:24.611Z,19.50
2023-05-07T17:01:59.522Z,19.40
2023-05-07T17:04:36.111Z,19.60
2023-05-07T17:07:12.897Z,19.50
2023-05-07T17:09:51.579Z,19.70
2023-05-07T17:12:31.387Z,19.80
2023-05-07T17:15:14.712Z,19.90
2023-05-07T17:17:54.415Z,19.70
2023-05-07T17:20:30.479Z,19.90
2023-05-07T17:23:06.744Z,19.90
2023-05-07T17:25:43.529Z,19.90
2023-05-07T17:28:19.284Z,20.00
2023-05-07T17:30:58.625Z,19.80
2023-05-07T17:33:33.364Z,19.50
2023-05-07T17:36:10.127Z,19.60
2023-05-07T17:38:52.504Z,19.50
2023-05-07T17:41:29.516Z,19.30
2023-05-07T17:44:03.488Z,19.10
2023-05-07T17:46:45.208Z,18.80
2023-05-07T17:49:25.025Z,18.60
2023-05-07T17:52:01.428Z,18.50
2023-05-07T17:54:41.262Z,18.50
2023-05-07T17:57:19.117Z,18.50
2023-05-07T17:59:53.666Z,18.20
2023-05-07T18:02:34.507Z,17.90
2023-05-07T18:05:16.546Z,18.10
2023-05-07T18:07:52.098Z,17.70
2023-05-07T18:10:31.175Z,17.70
2023-05-07T18:13:07.777Z,17.80
2023-05-07T18:15:41.855Z,18.00
2023-05-07T18:18:23.014Z,17.80
2023-05-07T18:20:59.608Z,17.90
2023-05-07T18:23:38.482Z,17.80
2023-05-07T18:26:16.127Z,17.90
2023-05-07T18:28:49.953Z,17.80
2023-05-07T18:31:28.806Z,17.70
2023-05-07T18:34:07.769Z,17.70
2023-05-07T18:36:41.926Z,17.60
2023-05-07T18:39:21.456Z,17.70
2023-05-07T18:42:00.204Z,17.70
2023-05-07T18:44:43.999Z,17.80
2023-05-07T18:47:17.632Z,17.70
2023-05-07T18:49:53.931Z,17.50
2023-05-07T18:52:29.725Z,17.80
2023-05-07T18:55:07.976Z,17.80
2023-05-07T18:57:45.344Z,17.90
2023-05-07T19:00:23.188Z,17.80
2023-05-07T19:02:58.666Z,17.90
2023-05-07T19:05:37.876Z,17.60
2023-05-07T19:08:11.483Z,17.60
2023-05-07T19:10:47.809Z,17.60
2023-05-07T19:13:21.358Z,17.80
2023-05-07T19:15:58.156Z,17.70
2023-05-07T19:18:34.991Z,17.70
2023-05-07T19:21:11.260Z,17.70
2023-05-07T19:23:46.424Z,17.70
2023-05-07T19:26:22.308Z,17.60
2023-05-07T19:29:07.171Z,17.40
2023-05-07T19:31:50.338Z,17.30
2023-05-07T19:34:26.348Z,17.10
2023-05-07T19:37:04.483Z,17.20
2023-05-07T19:39:42.084Z,17.30
2023-05-07T19:45:09.131Z,16.90
2023-05-07T19:47:44.242Z,17.20
2023-05-07T19:50:21.189Z,17.10
2023-05-07T19:52:59.906Z,17.10
2023-05-07T19:55:34.287Z,16.90
2023-05-07T19:58:09.733Z,17.10
2023-05-07T20:00:43.782Z,17.10
2023-05-07T20:03:20.925Z,17.10
2023-05-07T20:05:56.690Z,17.10
2023-05-07T20:08:39.879Z,17.20
2023-05-07T20:11:14.658Z,17.00
2023-05-07T20:13:50.962Z,17.00
2023-05-07T20:16:25.066Z,17.10
2023-05-07T20:19:02.857Z,17.30
2023-05-07T20:21:42.100Z,16.80
2023-05-07T20:24:22.151Z,16.70
2023-05-07T20:26:56.606Z,16.70
2023-05-07T20:29:33.555Z,16.90
2023-05-07T20:32:08.925Z,16.90
2023-05-07T20:34:46.542Z,16.80
2023-05-07T20:37:24.685Z,17.00
2023-05-07T20:40:02.686Z,17.10
2023-05-07T20:42:38.610Z,17.20
2023-05-07T20:45:14.952Z,16.90
2023-05-07T20:47:50.744Z,17.00
2023-05-07T20:50:27.531Z,17.00
2023-05-07T20:53:05.056Z,17.00
2023-05-07T20:55:42.565Z,17.10
2023-05-07T20:58:19.691Z,17.10
2023-05-07T21:00:57.960Z,17.10
2023-05-07T21:03:31.272Z,17.00
2023-05-07T21:06:05.515Z,17.00
2023-05-07T21:08:41.676Z,17.00
2023-05-07T21:11:19.036Z,17.10
2023-05-07T21:13:53.714Z,17.00
2023-05-07T21:16:28.338Z,17.20
2023-05-07T21:19:04.104Z,17.10
2023-05-07T21:21:38.436Z,17.10
2023-05-07T21:24:13.620Z,17.10
2023-05-07T21:26:54.348Z,17.00
2023-05-07T21:29:29.034Z,16.90
2023-05-07T21:32:02.090Z,17.00
2023-05-07T21:34:39.361Z,17.00
2023-05-07T21:37:16.834Z,16.90
2023-05-07T21:39:54.574Z,16.90
2023-05-07T21:42:36.477Z,16.90
2023-05-07T21:45:15.769Z,16.90
2023-05-07T21:47:49.471Z,16.90
2023-05-07T21:50:29.253Z,16.90
2023-05-07T21:53:03.967Z,16.70
2023-05-07T21:55:40.685Z,16.70
2023-05-07T21:58:23.946Z,16.60
2023-05-07T22:01:00.717Z,16.70
2023-05-07T22:03:37.566Z,16.80
2023-05-07T22:06:15.198Z,16.90
2023-05-07T22:08:52.837Z,17.00
2023-05-07T22:11:27.564Z,17.00
2023-05-07T22:14:07.475Z,16.80
2023-05-07T22:16:43.976Z,16.90
2023-05-07T22:19:20.366Z,17.00
2023-05-07T22:21:55.409Z,17.00
2023-05-07T22:24:41.848Z,17.10
2023-05-07T22:30:11.915Z,16.90
2023-05-07T22:32:47.533Z,16.30
2023-05-07T22:35:23.069Z,16.60
2023-05-07T22:38:01.167Z,16.80
2023-05-07T22:40:39.412Z,16.60
2023-05-07T22:43:14.992Z,16.60
2023-05-07T22:45:51.951Z,16.30
2023-05-07T22:48:28.959Z,16.40
2023-05-07T22:51:05.563Z,16.60
2023-05-07T22:53:39.462Z,16.50
2023-05-07T22:56:19.213Z,16.30
2023-05-07T22:58:53.925Z,16.30
2023-05-07T23:01:32.389Z,16.40
2023-05-07T23:04:09.852Z,16.50
2023-05-07T23:06:45.397Z,16.30
2023-05-07T23:09:24.984Z,16.30
2023-05-07T23:11:58.373Z,16.40
2023-05-07T23:14:40.054Z,16.50
2023-05-07T23:17:19.782Z,16.20
2023-05-07T23:19:55.674Z,15.90
2023-05-07T23:22:30.184Z,16.10
2023-05-07T23:25:11.339Z,16.10
2023-05-07T23:27:49.029Z,16.20
2023-05-07T23:30:23.839Z,16.30
2023-05-07T23:33:00.507Z,16.30
2023-05-07T23:35:37.971Z,16.60
2023-05-07T23:38:15.015Z,16.50
2023-05-07T23:40:55.162Z,16.70
2023-05-07T23:43:29.861Z,16.70
2023-05-07T23:46:06.190Z,16.70
2023-05-07T23:48:49.701Z,16.70
2023-05-07T23:51:27.631Z,16.30
2023-05-07T23:54:02.497Z,16.50
2023-05-07T23:56:36.478Z,16.40
2023-05-07T23:59:12.995Z,16.30
